Portada
METAR-TAF:

METAR-TAF

Aeroports :

Imphal, Índia

latitud: 24-45-36N, longitud: 93-53-48E, altitud: 774 m

Observació

L'informe es va fer fa 13 minuts, a les 07:30 UTC
Vent calma
Temperatura 28°C
Humitat 74%
Pressió 1003 hPa
Visibilitat: 5000 m
Núvols disperses a una alçada de 1800 ft
Núvols disperses a una alçada de 2500 ft
Cel ennuvolat a una alçada de 10000 ft
calitja

METAR: VEIM 250730Z 00000KT 5000 HZ SCT018 SCT025 BKN100 28/23 Q1003 NOSIG

Hora: 13:13 (07:43 UTC)


TAF: manca

Observacions i pronòstics meteorològics de més de 4000 aeroports (METAR i TAF).

Les estacions disponibles són els punts grocs i vermells al mapa.

Posi el ratolí al punt desitjat per veure el nom de l'estació.

Feu clic per veure les observacions i els pronòstics meteorològics.

Per canviar el mapa: feu clic els botons verds amb una creu de color negre per apropar; al botó verd amb un guió per allunyar la imatge; o en les fletxes verdes per a mapes adjacents.


METAR-TAF: